Oaklawn, Kansas
Current Conditions -  °F | °C
As of 8:58 AM on Friday 28 Nov 2014 (Local Time) from KIAB Reporting Station
Clear Clear  
Wind Chill: 36°   Ceiling: Unl
Heat Index: 43°   Visibility: 10mi
Dew Point: 29°   Wind: 14mph
Humidity: 58%   Direction: 210°SSW
Pressure: 30"   Gusts: NA
Location:  37.6055°N, 97.3205°W
Report Text: KIAB 281458Z AUTO 21012KT 10SM CLR 06/M02 A3000 RMK AO2 SLP168 T00611017 56005 $
Loading
Personal Weather Stations






























Interactive Weather Map New forecast layout! Learn more

10-Day Weather Forecast

Advertisements
Track Severe Weather on mobile